Time;durP1;ratioP1;P1;durP2;ratioP2;P2;SDS_P1;SDS_P2;PMS_P1;PMS_P2;Temp;Humidity;BMP_temperature;BMP_pressure;BME280_temperature;BME280_humidity;BME280_pressure;Samples;Min_cycle;Max_cycle;Signal;HPM_P1;HPM_P2
2021/10/25 00:02:56;;;;;;;5.03;3.90;;;;;;;;;;5009123;28;20619;-87
2021/10/25 00:06:01;;;;;;;5.73;4.37;;;;;;;;;;5022287;28;20587;-88
2021/10/25 00:09:05;;;;;;;9.93;4.50;;;;;;;;;;5022311;28;20643;-88
2021/10/25 00:12:09;;;;;;;9.40;4.70;;;;;;;;;;4995816;28;20595;-87
2021/10/25 00:15:13;;;;;;;6.60;4.10;;;;;;;;;;5009131;28;20618;-87
2021/10/25 00:18:17;;;;;;;5.97;4.10;;;;;;;;;;5010325;28;20587;-87
2021/10/25 00:21:21;;;;;;;6.87;4.53;;;;;;;;;;5032614;28;20592;-87
2021/10/25 00:24:25;;;;;;;7.73;4.70;;;;;;;;;;5009846;28;20573;-87
2021/10/25 00:27:30;;;;;;;5.80;4.27;;;;;;;;;;5004457;28;20629;-88
2021/10/25 00:30:33;;;;;;;7.67;4.30;;;;;;;;;;5018438;28;20643;-88
2021/10/25 00:33:38;;;;;;;6.10;4.93;;;;;;;;;;4999233;28;20540;-88
2021/10/25 00:36:42;;;;;;;7.03;4.20;;;;;;;;;;4991287;28;20588;-88
2021/10/25 00:39:46;;;;;;;8.80;5.20;;;;;;;;;;4979376;28;20988;-87
2021/10/25 00:42:50;;;;;;;9.27;4.90;;;;;;;;;;4991071;28;20537;-87
2021/10/25 00:45:55;;;;;;;7.83;4.80;;;;;;;;;;5016986;28;20591;-88
2021/10/25 00:49:00;;;;;;;5.87;4.67;;;;;;;;;;4998957;28;20659;-87
2021/10/25 00:52:05;;;;;;;5.27;4.40;;;;;;;;;;4979869;28;20933;-87
2021/10/25 00:55:09;;;;;;;7.43;4.90;;;;;;;;;;4987566;28;20618;-87
2021/10/25 00:58:13;;;;;;;9.47;5.00;;;;;;;;;;5019762;28;20654;-87
2021/10/25 01:01:18;;;;;;;8.43;5.37;;;;;;;;;;5001482;28;20537;-87
2021/10/25 01:04:23;;;;;;;9.40;5.87;;;;;;;;;;4982241;28;20600;-88
2021/10/25 01:07:27;;;;;;;6.73;4.97;;;;;;;;;;4997967;28;20631;-87
2021/10/25 01:10:31;;;;;;;7.83;4.83;;;;;;;;;;4967312;28;1041915;-88
2021/10/25 01:13:36;;;;;;;7.50;5.47;;;;;;;;;;5012590;28;20223;-88
2021/10/25 01:16:41;;;;;;;8.00;4.47;;;;;;;;;;4991105;28;21043;-87
2021/10/25 01:19:55;;;;;;;6.33;4.37;;;;;;;;;;5012108;28;20984;-88
2021/10/25 01:23:04;;;;;;;9.97;5.37;;;;;;;;;;5003039;28;20593;-87
2021/10/25 01:26:08;;;;;;;6.33;4.30;;;;;;;;;;4991084;28;20598;-87
2021/10/25 01:29:12;;;;;;;5.23;4.17;;;;;;;;;;5012944;28;20659;-88
2021/10/25 01:32:17;;;;;;;5.63;4.30;;;;;;;;;;5011605;28;20592;-88
2021/10/25 01:35:22;;;;;;;6.43;4.00;;;;;;;;;;5009930;28;20547;-87
2021/10/25 01:38:26;;;;;;;7.50;4.50;;;;;;;;;;4991056;28;20579;-88
2021/10/25 01:41:30;;;;;;;6.00;4.50;;;;;;;;;;4990153;28;20600;-88
2021/10/25 01:44:36;;;;;;;7.83;5.33;;;;;;;;;;5011572;28;20592;-87
2021/10/25 01:47:40;;;;;;;6.30;4.70;;;;;;;;;;4991751;28;20920;-87
2021/10/25 01:50:45;;;;;;;6.30;4.77;;;;;;;;;;4994811;28;21170;-87
2021/10/25 01:53:49;;;;;;;7.40;5.03;;;;;;;;;;5024820;28;20580;-87
2021/10/25 01:56:57;;;;;;;6.10;4.73;;;;;;;;;;5012522;28;21200;-87
2021/10/25 02:00:04;;;;;;;5.93;4.70;;;;;;;;;;5003048;28;20640;-88
2021/10/25 02:03:21;;;;;;;10.13;4.80;;;;;;;;;;5017466;28;20584;-87
2021/10/25 02:06:30;;;;;;;6.67;4.23;;;;;;;;;;4991261;28;20612;-88
2021/10/25 02:09:34;;;;;;;9.30;5.13;;;;;;;;;;4994102;28;20652;-87
2021/10/25 02:12:39;;;;;;;6.07;5.23;;;;;;;;;;4994296;28;20540;-87
2021/10/25 02:15:46;;;;;;;10.10;5.60;;;;;;;;;;5016595;28;21063;-88
2021/10/25 02:18:53;;;;;;;6.40;4.80;;;;;;;;;;5009025;28;20592;-88
2021/10/25 02:22:02;;;;;;;5.37;4.60;;;;;;;;;;4994586;28;20540;-88
2021/10/25 02:25:07;;;;;;;5.93;5.00;;;;;;;;;;5004934;28;20537;-88
2021/10/25 02:28:11;;;;;;;7.97;5.00;;;;;;;;;;4993676;28;20936;-88
2021/10/25 02:31:17;;;;;;;6.47;4.90;;;;;;;;;;4993739;28;20549;-87
2021/10/25 02:34:21;;;;;;;7.50;5.03;;;;;;;;;;5021482;28;20595;-88
2021/10/25 02:37:25;;;;;;;8.57;5.17;;;;;;;;;;4999057;28;20592;-88
2021/10/25 02:40:30;;;;;;;7.30;5.53;;;;;;;;;;4993235;28;20960;-88
2021/10/25 02:43:36;;;;;;;10.43;5.87;;;;;;;;;;5000911;28;20599;-88
2021/10/25 02:46:42;;;;;;;11.17;5.63;;;;;;;;;;5023353;28;20946;-88
2021/10/25 02:49:46;;;;;;;8.77;5.73;;;;;;;;;;5010726;28;20623;-88
2021/10/25 02:52:50;;;;;;;7.67;5.40;;;;;;;;;;5022060;28;20615;-88
2021/10/25 02:55:55;;;;;;;7.77;5.83;;;;;;;;;;5012829;28;20561;-88
2021/10/25 02:58:59;;;;;;;8.67;6.10;;;;;;;;;;5002584;28;20647;-88
2021/10/25 03:02:03;;;;;;;7.93;6.00;;;;;;;;;;5004618;28;20540;-88
2021/10/25 03:05:11;;;;;;;8.67;6.53;;;;;;;;;;5015149;28;21126;-88
2021/10/25 03:08:15;;;;;;;8.17;6.10;;;;;;;;;;4982203;28;21170;-88
2021/10/25 03:11:19;;;;;;;7.47;6.00;;;;;;;;;;5038867;23;20676;-82
2021/10/25 03:14:25;;;;;;;9.03;6.20;;;;;;;;;;5003549;28;20597;-82
2021/10/25 03:17:38;;;;;;;9.37;5.87;;;;;;;;;;4966902;28;20585;-83
2021/10/25 03:20:53;;;;;;;9.37;6.37;;;;;;;;;;5004105;28;20624;-82
2021/10/25 03:24:02;;;;;;;7.17;5.87;;;;;;;;;;4992672;28;20592;-82
2021/10/25 03:27:07;;;;;;;8.03;6.83;;;;;;;;;;4992416;28;20589;-82
2021/10/25 03:30:12;;;;;;;10.17;7.33;;;;;;;;;;5000581;28;20636;-82
2021/10/25 03:33:20;;;;;;;11.10;6.30;;;;;;;;;;4992767;28;20596;-82
2021/10/25 03:36:39;;;;;;;9.00;6.30;;;;;;;;;;5003501;28;20908;-82
2021/10/25 03:39:45;;;;;;;10.03;6.07;;;;;;;;;;4992200;28;20624;-82
2021/10/25 03:42:53;;;;;;;12.10;7.00;;;;;;;;;;4988223;28;20616;-82
2021/10/25 03:46:18;;;;;;;7.00;6.23;;;;;;;;;;4981938;28;20541;-82
2021/10/25 03:49:45;;;;;;;9.27;5.70;;;;;;;;;;4992044;28;20608;-83
2021/10/25 03:53:30;;;;;;;8.17;5.70;;;;;;;;;;4984642;28;20545;-82
2021/10/25 04:27:44;;;;;;;7.57;5.73;;;;;;;;;;4994485;28;20538;-82
2021/10/25 04:30:55;;;;;;;8.50;6.07;;;;;;;;;;4999381;28;20656;-83
2021/10/25 04:34:01;;;;;;;9.07;6.63;;;;;;;;;;5002571;28;21166;-82
2021/10/25 04:37:14;;;;;;;9.50;7.00;;;;;;;;;;5002623;28;20537;-83
2021/10/25 04:40:23;;;;;;;10.30;6.93;;;;;;;;;;4980255;28;20648;-85
2021/10/25 04:43:27;;;;;;;9.80;6.17;;;;;;;;;;4991031;28;21075;-85
2021/10/25 04:46:32;;;;;;;8.77;6.33;;;;;;;;;;4979657;28;20592;-85
2021/10/25 04:49:37;;;;;;;10.67;6.70;;;;;;;;;;4979083;28;20656;-85
2021/10/25 04:52:59;;;;;;;7.97;6.27;;;;;;;;;;5001851;28;20588;-85
2021/10/25 04:56:07;;;;;;;7.70;5.93;;;;;;;;;;4979687;28;20616;-85
2021/10/25 04:59:11;;;;;;;10.17;6.10;;;;;;;;;;5002002;28;20881;-85
2021/10/25 05:02:15;;;;;;;8.07;5.63;;;;;;;;;;4982397;28;20553;-85
2021/10/25 05:05:21;;;;;;;8.77;6.00;;;;;;;;;;4971381;28;20601;-85
2021/10/25 05:08:28;;;;;;;10.53;6.87;;;;;;;;;;4982293;28;20644;-85
2021/10/25 05:11:32;;;;;;;11.90;7.07;;;;;;;;;;4984306;28;20624;-85
2021/10/25 05:14:37;;;;;;;9.37;6.80;;;;;;;;;;4978939;28;20620;-85
2021/10/25 05:17:42;;;;;;;10.07;6.93;;;;;;;;;;4990602;28;20541;-85
2021/10/25 05:20:46;;;;;;;8.93;6.77;;;;;;;;;;4989823;28;20640;-86
2021/10/25 05:23:50;;;;;;;8.77;6.60;;;;;;;;;;5001010;28;20592;-85
2021/10/25 05:26:54;;;;;;;9.67;6.10;;;;;;;;;;4979381;28;20541;-86
2021/10/25 05:29:58;;;;;;;12.27;6.70;;;;;;;;;;5001054;28;20671;-85
2021/10/25 05:33:02;;;;;;;8.50;6.10;;;;;;;;;;4984150;28;20593;-85
2021/10/25 05:36:08;;;;;;;10.23;7.33;;;;;;;;;;4978856;28;20593;-85
2021/10/25 05:39:13;;;;;;;10.10;6.90;;;;;;;;;;4979287;28;20545;-85
2021/10/25 05:42:17;;;;;;;8.23;6.60;;;;;;;;;;4979356;28;20537;-85
2021/10/25 05:45:21;;;;;;;11.80;7.33;;;;;;;;;;4990000;28;20604;-85
2021/10/25 05:48:27;;;;;;;9.80;7.43;;;;;;;;;;4981672;28;20589;-85
2021/10/25 05:51:32;;;;;;;10.03;6.70;;;;;;;;;;5012311;28;20669;-85
2021/10/25 05:54:36;;;;;;;10.80;7.00;;;;;;;;;;4979367;28;20553;-85
2021/10/25 05:57:52;;;;;;;10.47;7.10;;;;;;;;;;4980032;28;21189;-85
2021/10/25 06:00:59;;;;;;;10.10;6.90;;;;;;;;;;4979783;28;20620;-86
2021/10/25 06:04:21;;;;;;;9.73;7.07;;;;;;;;;;4971207;28;20550;-86
2021/10/25 06:07:39;;;;;;;10.23;7.20;;;;;;;;;;4981891;28;21084;-86
2021/10/25 06:10:44;;;;;;;10.97;7.23;;;;;;;;;;4992500;28;21230;-86
2021/10/25 06:13:48;;;;;;;9.20;6.93;;;;;;;;;;4974884;28;20580;-86
2021/10/25 06:16:58;;;;;;;12.60;7.27;;;;;;;;;;4980940;28;20865;-87
2021/10/25 06:20:04;;;;;;;11.30;7.63;;;;;;;;;;4990359;28;20624;-86
2021/10/25 06:23:11;;;;;;;11.50;7.73;;;;;;;;;;4979309;28;21067;-86
2021/10/25 06:26:18;;;;;;;13.17;8.67;;;;;;;;;;4990917;28;20545;-86
2021/10/25 06:29:23;;;;;;;14.67;9.13;;;;;;;;;;4979424;28;20932;-85
2021/10/25 06:32:29;;;;;;;19.97;12.30;;;;;;;;;;4990123;28;20556;-85
2021/10/25 06:35:33;;;;;;;18.93;12.60;;;;;;;;;;4993306;28;20547;-85
2021/10/25 06:39:11;;;;;;;15.83;9.60;;;;;;;;;;4987409;28;20971;-85
2021/10/25 06:42:24;;;;;;;13.90;9.63;;;;;;;;;;4983047;28;20940;-86
2021/10/25 06:45:41;;;;;;;14.97;9.53;;;;;;;;;;4983459;28;20593;-85
2021/10/25 06:48:46;;;;;;;19.67;9.57;;;;;;;;;;4984650;28;20549;-85
2021/10/25 06:51:51;;;;;;;12.93;9.63;;;;;;;;;;4990047;28;20615;-85
2021/10/25 06:54:58;;;;;;;16.53;10.97;;;;;;;;;;4992921;28;20553;-86
2021/10/25 06:58:02;;;;;;;12.03;8.93;;;;;;;;;;4992880;28;20571;-86
2021/10/25 07:01:09;;;;;;;12.63;8.80;;;;;;;;;;4981656;28;20644;-85
2021/10/25 07:04:14;;;;;;;19.63;10.33;;;;;;;;;;4992760;28;20545;-85
2021/10/25 07:07:23;;;;;;;18.37;11.67;;;;;;;;;;4995687;28;20893;-86
2021/10/25 07:10:28;;;;;;;24.30;12.57;;;;;;;;;;4973020;28;20668;-86
2021/10/25 07:13:33;;;;;;;20.93;10.83;;;;;;;;;;4973677;28;20552;-86
2021/10/25 07:16:41;;;;;;;14.00;8.83;;;;;;;;;;4973201;28;20574;-86
2021/10/25 07:27:19;;;;;;;16.57;12.03;;;;;;;;;;5003890;28;20548;-86
2021/10/25 08:08:34;;;;;;;11.60;8.20;;;;;;;;;;4991301;28;20589;-85
2021/10/25 08:11:46;;;;;;;13.33;8.03;;;;;;;;;;4961314;28;20855;-85
2021/10/25 08:14:55;;;;;;;10.00;7.37;;;;;;;;;;4973614;28;20612;-85
2021/10/25 08:18:02;;;;;;;9.63;7.50;;;;;;;;;;4994204;28;20582;-86
2021/10/25 08:21:06;;;;;;;13.33;7.50;;;;;;;;;;4982861;28;20218;-85
2021/10/25 08:24:11;;;;;;;10.97;7.27;;;;;;;;;;4982924;28;20182;-85
2021/10/25 08:27:34;;;;;;;13.63;7.50;;;;;;;;;;4991281;28;20193;-85
2021/10/25 08:30:38;;;;;;;11.30;8.10;;;;;;;;;;4987520;28;20224;-85
2021/10/25 08:34:29;;;;;;;13.20;7.93;;;;;;;;;;4979849;28;20198;-85
2021/10/25 08:40:37;;;;;;;9.33;7.87;;;;;;;;;;5002170;28;20577;-86
2021/10/25 08:43:45;;;;;;;10.03;7.63;;;;;;;;;;5002003;28;20205;-86
2021/10/25 08:46:54;;;;;;;12.13;7.63;;;;;;;;;;4999318;28;20209;-85
2021/10/25 08:50:00;;;;;;;9.00;7.50;;;;;;;;;;4979766;28;20304;-86
2021/10/25 08:53:07;;;;;;;11.97;8.07;;;;;;;;;;4979383;28;20193;-85
2021/10/25 08:56:28;;;;;;;10.60;8.00;;;;;;;;;;4980806;28;20202;-85
2021/10/25 08:59:59;;;;;;;13.23;8.47;;;;;;;;;;4991077;28;20715;-85
2021/10/25 09:03:03;;;;;;;12.70;8.53;;;;;;;;;;4990793;28;20528;-86
2021/10/25 09:06:15;;;;;;;8.57;7.50;;;;;;;;;;4990152;28;20205;-86
2021/10/25 09:09:22;;;;;;;11.23;7.40;;;;;;;;;;4989700;28;20209;-86
2021/10/25 09:23:17;;;;;;;9.77;7.57;;;;;;;;;;5000390;28;20218;-87
2021/10/25 09:32:15;;;;;;;12.60;8.60;;;;;;;;;;5007544;23;20235;-72
2021/10/25 09:35:42;;;;;;;10.07;8.00;;;;;;;;;;5053185;28;20184;-72
2021/10/25 09:45:40;;;;;;;10.47;9.03;;;;;;;;;;5039952;28;20200;-72
2021/10/25 09:49:10;;;;;;;12.13;9.57;;;;;;;;;;5053046;28;20188;-72
2021/10/25 09:52:16;;;;;;;14.07;9.93;;;;;;;;;;5022807;28;20221;-72
2021/10/25 09:55:25;;;;;;;15.07;10.70;;;;;;;;;;5028306;28;20200;-72
2021/10/25 09:58:42;;;;;;;13.50;9.80;;;;;;;;;;5031624;28;20188;-72
2021/10/25 10:01:47;;;;;;;14.00;10.43;;;;;;;;;;5045318;28;20220;-72
2021/10/25 10:04:57;;;;;;;18.73;13.90;;;;;;;;;;5052620;28;20208;-72
2021/10/25 10:08:08;;;;;;;14.20;11.70;;;;;;;;;;5025791;28;20678;-72
2021/10/25 10:11:18;;;;;;;16.97;11.83;;;;;;;;;;5046046;28;20238;-72
2021/10/25 10:14:25;;;;;;;15.00;10.53;;;;;;;;;;5055779;28;20191;-72
2021/10/25 10:17:42;;;;;;;14.33;12.13;;;;;;;;;;5038994;28;20203;-72
2021/10/25 10:20:51;;;;;;;13.47;10.60;;;;;;;;;;5053858;28;20227;-72
2021/10/25 10:24:08;;;;;;;15.50;10.90;;;;;;;;;;5055251;28;20214;-72
2021/10/25 10:27:19;;;;;;;17.90;10.33;;;;;;;;;;5036565;28;20208;-72
2021/10/25 10:30:24;;;;;;;14.30;10.27;;;;;;;;;;5024076;28;20216;-72
2021/10/25 10:33:44;;;;;;;13.57;10.90;;;;;;;;;;5013103;28;20204;-72
2021/10/25 10:36:57;;;;;;;15.60;10.63;;;;;;;;;;5038792;28;20188;-72
2021/10/25 10:40:18;;;;;;;13.13;10.17;;;;;;;;;;5013009;28;20218;-72
2021/10/25 10:43:56;;;;;;;12.80;10.93;;;;;;;;;;5028803;28;20219;-73
2021/10/25 10:47:08;;;;;;;17.33;12.13;;;;;;;;;;5026093;28;20200;-72
2021/10/25 10:50:35;;;;;;;15.33;10.77;;;;;;;;;;5043920;28;20231;-72
2021/10/25 10:53:52;;;;;;;15.37;11.27;;;;;;;;;;5036110;28;20196;-72
2021/10/25 10:57:05;;;;;;;16.30;11.77;;;;;;;;;;5041618;28;20682;-72
2021/10/25 11:00:11;;;;;;;16.43;11.70;;;;;;;;;;5054597;28;20195;-72
2021/10/25 11:03:27;;;;;;;17.73;11.30;;;;;;;;;;5055729;28;20192;-72
2021/10/25 11:06:32;;;;;;;14.27;11.57;;;;;;;;;;5053656;28;20562;-72
2021/10/25 11:09:36;;;;;;;19.57;12.70;;;;;;;;;;5055469;28;20192;-72
2021/10/25 11:12:44;;;;;;;14.07;11.10;;;;;;;;;;5038993;28;20196;-72
2021/10/25 11:16:08;;;;;;;15.60;11.73;;;;;;;;;;5036278;28;20212;-72
2021/10/25 11:19:12;;;;;;;15.87;12.00;;;;;;;;;;5023373;28;20192;-72
2021/10/25 11:22:31;;;;;;;15.17;11.67;;;;;;;;;;5040980;28;20224;-73
2021/10/25 11:25:41;;;;;;;14.93;12.13;;;;;;;;;;5025011;28;20216;-72
2021/10/25 11:29:12;;;;;;;15.10;11.87;;;;;;;;;;5055507;28;20191;-72
2021/10/25 11:32:16;;;;;;;19.50;13.00;;;;;;;;;;5022320;28;20227;-72
2021/10/25 11:35:20;;;;;;;20.87;13.23;;;;;;;;;;5050076;28;20207;-72
2021/10/25 11:38:26;;;;;;;15.33;12.93;;;;;;;;;;5040930;28;20195;-72
2021/10/25 11:41:33;;;;;;;16.67;12.70;;;;;;;;;;5043518;28;20215;-72
2021/10/25 11:44:43;;;;;;;19.13;12.53;;;;;;;;;;5044094;28;20200;-72
2021/10/25 11:47:49;;;;;;;16.13;12.63;;;;;;;;;;5035840;28;20211;-72
2021/10/25 11:50:58;;;;;;;18.23;12.40;;;;;;;;;;5034983;28;20235;-72
2021/10/25 11:54:03;;;;;;;16.03;11.47;;;;;;;;;;5034680;28;20217;-72
2021/10/25 11:57:07;;;;;;;17.60;11.93;;;;;;;;;;5046205;28;20210;-72
2021/10/25 12:00:13;;;;;;;16.73;13.03;;;;;;;;;;5053238;28;20207;-73
2021/10/25 12:03:19;;;;;;;17.73;12.10;;;;;;;;;;5034858;28;20192;-72
2021/10/25 12:06:24;;;;;;;20.90;12.30;;;;;;;;;;5028862;28;20222;-72
2021/10/25 12:09:32;;;;;;;16.33;12.07;;;;;;;;;;5054240;28;20566;-72
2021/10/25 12:12:36;;;;;;;16.50;12.30;;;;;;;;;;5022205;28;20583;-72
2021/10/25 12:15:46;;;;;;;16.47;12.17;;;;;;;;;;5034308;28;20211;-72
2021/10/25 12:18:53;;;;;;;20.03;12.47;;;;;;;;;;5033981;28;20702;-72
2021/10/25 12:22:09;;;;;;;15.13;12.37;;;;;;;;;;5034954;28;20232;-72
2021/10/25 12:25:13;;;;;;;16.53;12.47;;;;;;;;;;5033770;28;20686;-72
2021/10/25 12:28:20;;;;;;;15.80;12.03;;;;;;;;;;5034111;28;20219;-72
2021/10/25 12:31:26;;;;;;;14.93;12.60;;;;;;;;;;5040466;28;20238;-72
2021/10/25 12:34:30;;;;;;;16.33;12.10;;;;;;;;;;5040677;28;20567;-72
2021/10/25 12:37:36;;;;;;;18.33;13.73;;;;;;;;;;5033950;28;20215;-72
2021/10/25 12:40:47;;;;;;;16.97;12.50;;;;;;;;;;5025168;28;20228;-72
2021/10/25 12:43:56;;;;;;;17.43;12.60;;;;;;;;;;5040276;28;20199;-72
2021/10/25 12:47:08;;;;;;;17.23;12.80;;;;;;;;;;5053654;28;20192;-73
2021/10/25 12:50:15;;;;;;;17.03;12.57;;;;;;;;;;5031609;28;20204;-73
2021/10/25 12:53:19;;;;;;;16.47;12.70;;;;;;;;;;5034047;28;20264;-72
2021/10/25 12:56:28;;;;;;;16.63;12.67;;;;;;;;;;5043714;28;20210;-73
2021/10/25 12:59:33;;;;;;;16.83;12.13;;;;;;;;;;5047773;28;20225;-73
2021/10/25 13:02:46;;;;;;;17.97;11.80;;;;;;;;;;5033621;28;20590;-73
2021/10/25 13:05:51;;;;;;;15.17;11.93;;;;;;;;;;5040627;28;20693;-73
2021/10/25 13:09:06;;;;;;;17.30;12.03;;;;;;;;;;5051626;28;20203;-72
2021/10/25 13:12:10;;;;;;;17.70;12.87;;;;;;;;;;5021039;28;20722;-73
2021/10/25 13:15:14;;;;;;;20.00;14.13;;;;;;;;;;5034559;28;20216;-72
2021/10/25 13:18:18;;;;;;;18.60;13.30;;;;;;;;;;5033371;28;20556;-72
2021/10/25 13:21:22;;;;;;;17.27;13.60;;;;;;;;;;5038813;28;20221;-73
2021/10/25 13:24:26;;;;;;;31.67;13.47;;;;;;;;;;5033305;28;20678;-72
2021/10/25 13:27:31;;;;;;;19.30;13.70;;;;;;;;;;5049310;28;20219;-72
2021/10/25 13:30:35;;;;;;;17.53;13.00;;;;;;;;;;5040871;28;20231;-73
2021/10/25 13:33:41;;;;;;;16.57;12.53;;;;;;;;;;5033155;28;20192;-72
2021/10/25 13:36:45;;;;;;;14.17;12.00;;;;;;;;;;5033178;28;20204;-72
2021/10/25 13:39:49;;;;;;;16.83;12.87;;;;;;;;;;5039736;28;20677;-72
2021/10/25 13:43:01;;;;;;;20.83;14.13;;;;;;;;;;5053534;28;20589;-72
2021/10/25 13:46:05;;;;;;;18.23;12.50;;;;;;;;;;5043104;28;20195;-72
2021/10/25 13:49:10;;;;;;;25.83;14.50;;;;;;;;;;5055921;28;20195;-72
2021/10/25 13:52:15;;;;;;;16.67;12.53;;;;;;;;;;5036980;28;20231;-73
2021/10/25 13:55:19;;;;;;;21.47;13.40;;;;;;;;;;5048154;28;20204;-73
2021/10/25 13:58:23;;;;;;;15.30;11.77;;;;;;;;;;5024818;28;20192;-73
2021/10/25 14:01:27;;;;;;;19.20;14.23;;;;;;;;;;5042885;28;20607;-72
2021/10/25 14:04:31;;;;;;;16.60;12.57;;;;;;;;;;5040430;28;20187;-73
2021/10/25 14:07:36;;;;;;;17.43;13.90;;;;;;;;;;5044118;28;20559;-73
2021/10/25 14:10:48;;;;;;;19.17;13.20;;;;;;;;;;5056364;28;20597;-72
2021/10/25 14:14:06;;;;;;;22.13;13.80;;;;;;;;;;5056634;28;20196;-73
2021/10/25 14:17:10;;;;;;;23.57;13.50;;;;;;;;;;5056494;28;20207;-73
2021/10/25 14:20:15;;;;;;;21.33;14.80;;;;;;;;;;5056191;28;20187;-73
2021/10/25 14:23:19;;;;;;;18.37;13.87;;;;;;;;;;5056416;28;20203;-73
2021/10/25 14:26:24;;;;;;;17.60;14.20;;;;;;;;;;5044298;28;20191;-73
2021/10/25 14:29:29;;;;;;;19.07;14.17;;;;;;;;;;5056043;28;20195;-73
2021/10/25 14:32:33;;;;;;;17.57;14.20;;;;;;;;;;5055799;28;20234;-72
2021/10/25 14:35:38;;;;;;;22.33;16.00;;;;;;;;;;5056222;28;20207;-73
2021/10/25 14:39:07;;;;;;;25.30;16.17;;;;;;;;;;5056381;28;20195;-73
2021/10/25 14:42:22;;;;;;;21.10;15.77;;;;;;;;;;5044010;28;20601;-72
2021/10/25 14:45:30;;;;;;;22.90;17.37;;;;;;;;;;5055987;28;20223;-73
2021/10/25 14:48:51;;;;;;;28.17;18.33;;;;;;;;;;5043524;28;20195;-73
2021/10/25 14:56:05;;;;;;;23.70;18.13;;;;;;;;;;5055593;28;20195;-73
2021/10/25 14:58:42;;;;;;;32.53;20.17;;;;;;;;;;5061654;28;20199;-73
2021/10/25 15:01:47;;;;;;;23.20;16.67;;;;;;;;;;5043329;28;20218;-73
2021/10/25 15:04:52;;;;;;;27.27;18.13;;;;;;;;;;5055668;28;20183;-73
2021/10/25 15:07:56;;;;;;;23.07;17.40;;;;;;;;;;5055585;28;20187;-73
2021/10/25 15:11:26;;;;;;;27.63;17.33;;;;;;;;;;5056534;28;20223;-72
2021/10/25 15:14:31;;;;;;;25.70;17.80;;;;;;;;;;5014736;28;20228;-74
2021/10/25 15:17:35;;;;;;;27.20;18.93;;;;;;;;;;5015823;28;20192;-73
2021/10/25 15:20:40;;;;;;;25.97;18.87;;;;;;;;;;5012301;28;20227;-72
2021/10/25 15:23:45;;;;;;;26.23;18.53;;;;;;;;;;5031837;28;20208;-73
2021/10/25 15:26:51;;;;;;;29.30;19.80;;;;;;;;;;5031039;28;20185;-72
2021/10/25 15:29:57;;;;;;;29.93;19.43;;;;;;;;;;4999551;28;20193;-73
2021/10/25 15:33:02;;;;;;;31.27;21.13;;;;;;;;;;5021855;28;20219;-72
2021/10/25 15:36:07;;;;;;;31.00;18.83;;;;;;;;;;5030513;28;20523;-73
2021/10/25 15:39:10;;;;;;;28.33;17.83;;;;;;;;;;5031347;28;20196;-72
2021/10/25 15:42:17;;;;;;;33.63;20.47;;;;;;;;;;5011597;28;20813;-72
2021/10/25 15:45:21;;;;;;;28.07;21.17;;;;;;;;;;5022232;28;20190;-72
2021/10/25 15:48:25;;;;;;;31.10;21.23;;;;;;;;;;5016625;28;20216;-72
2021/10/25 15:51:31;;;;;;;32.03;20.07;;;;;;;;;;5030883;28;21003;-72
2021/10/25 15:54:35;;;;;;;30.90;21.63;;;;;;;;;;5030956;28;20204;-72
2021/10/25 15:57:39;;;;;;;27.07;19.97;;;;;;;;;;5031137;28;20189;-72
2021/10/25 16:00:44;;;;;;;26.87;20.03;;;;;;;;;;5025298;28;20224;-72
2021/10/25 16:03:48;;;;;;;28.57;20.10;;;;;;;;;;5030830;28;20204;-72
2021/10/25 16:06:53;;;;;;;28.10;20.23;;;;;;;;;;5017681;28;20199;-72
2021/10/25 16:09:57;;;;;;;33.50;22.57;;;;;;;;;;5024481;28;20210;-75
2021/10/25 16:13:01;;;;;;;25.93;19.83;;;;;;;;;;5018100;28;20598;-74
2021/10/25 16:16:05;;;;;;;31.30;21.87;;;;;;;;;;5018594;28;20212;-74
2021/10/25 16:19:10;;;;;;;28.33;21.00;;;;;;;;;;5030792;28;20200;-74
2021/10/25 16:22:14;;;;;;;27.67;19.80;;;;;;;;;;5029899;28;20717;-74
2021/10/25 16:25:19;;;;;;;27.60;20.80;;;;;;;;;;5030271;28;20668;-74
2021/10/25 16:28:23;;;;;;;27.63;19.70;;;;;;;;;;5029888;28;20536;-74
2021/10/25 16:31:27;;;;;;;28.13;19.37;;;;;;;;;;5029485;28;20228;-74
2021/10/25 16:34:32;;;;;;;31.53;21.03;;;;;;;;;;4987792;28;20688;-74
2021/10/25 16:37:37;;;;;;;30.20;20.57;;;;;;;;;;5013239;28;20899;-74
2021/10/25 16:40:44;;;;;;;29.37;19.27;;;;;;;;;;5020841;28;20232;-74
2021/10/25 16:43:48;;;;;;;40.87;18.73;;;;;;;;;;5019044;28;20220;-74
2021/10/25 16:46:53;;;;;;;28.07;19.90;;;;;;;;;;5011970;28;20189;-74
2021/10/25 16:50:00;;;;;;;29.07;18.03;;;;;;;;;;5006736;28;20200;-74
2021/10/25 16:53:32;;;;;;;25.63;18.03;;;;;;;;;;5005520;28;20590;-74
2021/10/25 17:09:45;;;;;;;29.43;20.67;;;;;;;;;;5017925;28;20204;-74
2021/10/25 17:12:50;;;;;;;27.57;18.77;;;;;;;;;;5029313;28;20227;-74
2021/10/25 17:15:55;;;;;;;26.03;19.07;;;;;;;;;;5017233;28;20196;-74
2021/10/25 17:18:59;;;;;;;27.33;19.30;;;;;;;;;;5005173;28;20307;-74
2021/10/25 17:22:06;;;;;;;28.00;18.87;;;;;;;;;;5006168;28;20229;-74
2021/10/25 17:25:10;;;;;;;26.40;18.70;;;;;;;;;;5029290;28;20205;-74
2021/10/25 17:28:15;;;;;;;30.70;21.80;;;;;;;;;;5028877;28;20217;-74
2021/10/25 17:31:22;;;;;;;33.43;22.87;;;;;;;;;;5017686;28;20231;-74
2021/10/25 17:34:26;;;;;;;33.03;22.67;;;;;;;;;;5017477;28;20551;-74
2021/10/25 17:37:31;;;;;;;33.03;22.60;;;;;;;;;;5005679;28;20191;-74
2021/10/25 17:40:36;;;;;;;27.73;18.70;;;;;;;;;;5017164;28;20283;-74
2021/10/25 17:43:40;;;;;;;26.20;18.13;;;;;;;;;;5017257;28;20861;-74
2021/10/25 17:46:44;;;;;;;27.77;19.20;;;;;;;;;;5028021;28;20604;-73
2021/10/25 17:49:53;;;;;;;27.80;19.37;;;;;;;;;;5017067;28;20644;-73
2021/10/25 17:52:57;;;;;;;23.20;17.27;;;;;;;;;;5009336;28;20234;-74
2021/10/25 17:56:02;;;;;;;30.20;18.27;;;;;;;;;;5017246;28;20935;-74
2021/10/25 17:59:07;;;;;;;23.93;16.33;;;;;;;;;;5036320;28;20223;-74
2021/10/25 18:02:11;;;;;;;27.90;19.43;;;;;;;;;;5036690;28;20262;-73
2021/10/25 18:05:18;;;;;;;27.53;18.70;;;;;;;;;;5036704;28;20240;-73
2021/10/25 18:08:25;;;;;;;28.30;20.23;;;;;;;;;;5048053;28;20186;-74
2021/10/25 18:11:36;;;;;;;32.17;18.17;;;;;;;;;;5036046;28;20232;-74
2021/10/25 18:14:40;;;;;;;28.23;17.80;;;;;;;;;;5025532;28;20193;-74
2021/10/25 18:17:45;;;;;;;24.77;17.93;;;;;;;;;;5036477;28;20188;-74
2021/10/25 18:20:52;;;;;;;25.73;17.57;;;;;;;;;;5047711;28;20232;-74
2021/10/25 18:23:56;;;;;;;28.30;19.30;;;;;;;;;;5048536;28;20189;-75
2021/10/25 18:27:00;;;;;;;29.07;19.83;;;;;;;;;;5025713;28;20201;-74
2021/10/25 18:30:05;;;;;;;28.27;19.30;;;;;;;;;;5017043;28;20191;-73
2021/10/25 18:33:09;;;;;;;25.73;18.37;;;;;;;;;;5031437;28;20583;-74
2021/10/25 18:36:14;;;;;;;29.57;19.30;;;;;;;;;;5030940;28;20223;-74
2021/10/25 18:39:18;;;;;;;31.67;18.37;;;;;;;;;;5008536;28;20193;-74
2021/10/25 18:42:22;;;;;;;23.07;17.40;;;;;;;;;;5013459;28;20240;-74
2021/10/25 18:45:28;;;;;;;27.63;18.70;;;;;;;;;;5010873;28;20975;-74
2021/10/25 18:48:32;;;;;;;30.43;19.93;;;;;;;;;;5031694;28;20205;-74
2021/10/25 18:51:37;;;;;;;30.90;19.67;;;;;;;;;;5031772;28;20233;-74
2021/10/25 18:54:41;;;;;;;28.43;19.77;;;;;;;;;;5012170;28;20265;-74
2021/10/25 18:57:46;;;;;;;31.13;19.60;;;;;;;;;;5014426;28;20192;-74
2021/10/25 19:00:50;;;;;;;23.70;17.53;;;;;;;;;;5010338;28;20239;-74
2021/10/25 19:03:55;;;;;;;24.93;18.00;;;;;;;;;;5013773;28;20196;-74
2021/10/25 19:06:59;;;;;;;26.67;17.70;;;;;;;;;;5019020;28;20510;-74
2021/10/25 19:10:05;;;;;;;25.97;17.57;;;;;;;;;;5019436;28;20196;-74
2021/10/25 19:13:10;;;;;;;23.17;16.60;;;;;;;;;;5010249;28;20236;-74
2021/10/25 19:16:16;;;;;;;24.10;16.83;;;;;;;;;;5027756;28;20207;-74
2021/10/25 19:19:21;;;;;;;23.67;16.87;;;;;;;;;;5017492;28;20579;-76
2021/10/25 19:22:27;;;;;;;25.30;17.30;;;;;;;;;;5018746;28;20227;-74
2021/10/25 19:25:31;;;;;;;23.47;17.30;;;;;;;;;;5030541;28;20220;-74
2021/10/25 19:28:36;;;;;;;22.57;16.60;;;;;;;;;;5011208;28;20200;-74
2021/10/25 19:31:41;;;;;;;23.33;16.53;;;;;;;;;;5018146;28;20231;-74
2021/10/25 19:34:50;;;;;;;22.73;16.17;;;;;;;;;;5030302;28;20204;-74
2021/10/25 19:37:55;;;;;;;24.90;15.03;;;;;;;;;;5018944;28;20181;-74
2021/10/25 19:40:59;;;;;;;22.43;16.20;;;;;;;;;;5030335;28;20224;-74
2021/10/25 19:44:04;;;;;;;22.67;16.13;;;;;;;;;;5030988;28;20196;-74
2021/10/25 19:47:10;;;;;;;19.17;14.80;;;;;;;;;;5031080;28;20673;-74
2021/10/25 19:50:15;;;;;;;24.70;16.30;;;;;;;;;;5030216;28;20197;-73
2021/10/25 19:53:20;;;;;;;17.83;14.30;;;;;;;;;;5018537;28;20288;-74
2021/10/25 19:56:25;;;;;;;23.90;17.07;;;;;;;;;;5030723;28;20714;-74
2021/10/25 19:59:30;;;;;;;23.27;16.10;;;;;;;;;;5006934;28;20192;-74
2021/10/25 20:02:35;;;;;;;20.77;14.93;;;;;;;;;;5018456;28;20232;-74
2021/10/25 20:05:39;;;;;;;25.07;15.07;;;;;;;;;;5018612;28;20189;-74
2021/10/25 20:08:43;;;;;;;20.87;14.53;;;;;;;;;;5030577;28;20611;-74
2021/10/25 20:11:48;;;;;;;18.43;13.63;;;;;;;;;;5030056;28;20252;-74
2021/10/25 20:14:52;;;;;;;19.83;14.10;;;;;;;;;;5030425;28;20212;-74
2021/10/25 20:17:57;;;;;;;18.20;13.67;;;;;;;;;;5018306;28;20204;-74
2021/10/25 20:21:01;;;;;;;20.87;14.67;;;;;;;;;;5029328;28;20231;-74
2021/10/25 20:24:10;;;;;;;21.90;14.27;;;;;;;;;;5030125;28;20194;-74